Time;durP1;ratioP1;P1;durP2;ratioP2;P2;SDS_P1;SDS_P2;PMS_P1;PMS_P2;Temp;Humidity;BMP_temperature;BMP_pressure;BME280_temperature;BME280_humidity;BME280_pressure;Samples;Min_cycle;Max_cycle;Signal;HPM_P1;HPM_P2
2024/04/03 00:00:44;;;;;;;38.50;7.10;;;;;;;;;;5026525;28;20739;-56
2024/04/03 00:03:10;;;;;;;28.73;6.38;;;;;;;;;;5033500;28;20037;-56
2024/04/03 00:05:36;;;;;;;23.98;5.63;;;;;;;;;;5041787;28;20030;-53
2024/04/03 00:08:02;;;;;;;25.73;6.53;;;;;;;;;;5026618;28;20037;-52
2024/04/03 00:10:28;;;;;;;25.05;5.90;;;;;;;;;;5040789;28;20038;-52
2024/04/03 00:12:54;;;;;;;23.02;6.35;;;;;;;;;;5038608;28;20049;-51
2024/04/03 00:15:19;;;;;;;22.48;5.95;;;;;;;;;;5022616;28;20044;-53
2024/04/03 00:17:45;;;;;;;23.25;6.22;;;;;;;;;;5024197;28;20045;-52
2024/04/03 00:20:11;;;;;;;22.77;6.88;;;;;;;;;;5024241;28;20030;-52
2024/04/03 00:22:37;;;;;;;23.05;7.13;;;;;;;;;;5040196;28;20041;-55
2024/04/03 00:25:03;;;;;;;32.22;6.10;;;;;;;;;;5025625;28;20447;-52
2024/04/03 00:27:29;;;;;;;23.38;6.43;;;;;;;;;;5007993;28;20087;-52
2024/04/03 00:29:55;;;;;;;26.77;6.35;;;;;;;;;;5008154;28;20046;-55
2024/04/03 00:32:20;;;;;;;30.48;6.18;;;;;;;;;;5024837;28;20045;-50
2024/04/03 00:34:46;;;;;;;26.02;6.18;;;;;;;;;;5025149;28;20496;-55
2024/04/03 00:37:12;;;;;;;21.65;6.00;;;;;;;;;;5028098;28;20038;-55
2024/04/03 00:39:38;;;;;;;24.75;6.75;;;;;;;;;;5027588;28;20103;-50
2024/04/03 00:42:04;;;;;;;28.60;7.07;;;;;;;;;;5044276;28;20596;-54
2024/04/03 00:44:31;;;;;;;21.13;6.57;;;;;;;;;;5028468;28;20049;-54
2024/04/03 00:47:01;;;;;;;25.08;7.68;;;;;;;;;;5029015;28;20627;-50
2024/04/03 00:49:27;;;;;;;21.80;5.63;;;;;;;;;;5027625;28;20049;-55
2024/04/03 00:51:52;;;;;;;30.15;6.75;;;;;;;;;;5028867;28;20041;-52
2024/04/03 00:54:19;;;;;;;16.60;6.05;;;;;;;;;;5028424;28;20057;-52
2024/04/03 00:56:45;;;;;;;22.52;5.35;;;;;;;;;;5028653;28;20129;-55
2024/04/03 00:59:12;;;;;;;28.88;5.90;;;;;;;;;;5029036;28;20125;-52
2024/04/03 01:01:37;;;;;;;19.92;6.30;;;;;;;;;;5028486;28;20475;-49
2024/04/03 01:04:03;;;;;;;25.10;5.88;;;;;;;;;;5026449;28;20145;-54
2024/04/03 01:06:29;;;;;;;27.50;5.88;;;;;;;;;;5028579;28;20033;-52
2024/04/03 01:08:55;;;;;;;28.92;7.13;;;;;;;;;;5028955;28;20044;-52
2024/04/03 01:11:20;;;;;;;24.08;6.00;;;;;;;;;;5029118;28;20037;-50
2024/04/03 01:13:46;;;;;;;23.92;5.95;;;;;;;;;;5028615;28;20143;-49
2024/04/03 01:16:12;;;;;;;16.30;5.00;;;;;;;;;;5027770;28;20077;-52
2024/04/03 01:18:38;;;;;;;25.85;5.78;;;;;;;;;;5043752;28;20049;-53
2024/04/03 01:21:03;;;;;;;21.13;5.20;;;;;;;;;;5028162;28;20034;-49
2024/04/03 01:23:29;;;;;;;21.25;6.13;;;;;;;;;;5025016;28;20087;-52
2024/04/03 01:25:55;;;;;;;24.35;6.03;;;;;;;;;;5034457;28;20036;-56
2024/04/03 01:28:22;;;;;;;33.97;6.88;;;;;;;;;;5041913;28;20048;-50
2024/04/03 01:30:48;;;;;;;34.78;6.43;;;;;;;;;;5043533;28;20157;-50
2024/04/03 01:33:13;;;;;;;28.52;5.70;;;;;;;;;;5043866;28;20111;-54
2024/04/03 01:35:39;;;;;;;25.88;5.32;;;;;;;;;;4990472;28;20038;-51
2024/04/03 01:38:05;;;;;;;26.95;6.30;;;;;;;;;;5008162;28;20402;-52
2024/04/03 01:40:31;;;;;;;22.83;5.03;;;;;;;;;;5007228;28;20037;-56
2024/04/03 01:42:56;;;;;;;23.63;6.47;;;;;;;;;;5008246;28;20397;-55
2024/04/03 01:45:22;;;;;;;24.50;5.00;;;;;;;;;;5008711;28;20089;-51
2024/04/03 01:47:48;;;;;;;18.02;5.38;;;;;;;;;;5043091;28;20061;-52
2024/04/03 01:50:21;;;;;;;23.58;6.35;;;;;;;;;;5026389;28;20054;-51
2024/04/03 01:52:47;;;;;;;27.17;5.13;;;;;;;;;;5025995;28;20088;-52
2024/04/03 01:55:13;;;;;;;19.23;6.28;;;;;;;;;;5027591;28;20038;-55
2024/04/03 01:57:39;;;;;;;25.90;6.43;;;;;;;;;;5027142;28;20067;-54
2024/04/03 02:00:08;;;;;;;20.92;6.35;;;;;;;;;;5026690;28;20464;-55
2024/04/03 02:02:33;;;;;;;;;;;;;;;;;;5043375;28;20033;-51
2024/04/03 02:04:59;;;;;;;21.85;5.25;;;;;;;;;;5026067;28;20702;-56
2024/04/03 02:07:25;;;;;;;16.50;4.57;;;;;;;;;;5025640;28;20428;-55
2024/04/03 02:09:51;;;;;;;20.55;4.85;;;;;;;;;;5027649;28;20037;-51
2024/04/03 02:12:16;;;;;;;22.63;5.57;;;;;;;;;;5027754;28;20065;-54
2024/04/03 02:14:42;;;;;;;20.95;5.63;;;;;;;;;;5042746;28;20472;-52
2024/04/03 02:17:08;;;;;;;21.65;5.13;;;;;;;;;;5005529;28;20041;-51
2024/04/03 02:19:35;;;;;;;31.08;5.75;;;;;;;;;;5007205;28;20038;-55
2024/04/03 02:22:00;;;;;;;21.90;5.88;;;;;;;;;;5022068;28;20696;-50
2024/04/03 02:24:26;;;;;;;24.83;5.82;;;;;;;;;;5026392;28;20080;-50
2024/04/03 02:26:54;;;;;;;29.67;6.50;;;;;;;;;;5041498;28;20051;-52
2024/04/03 02:29:20;;;;;;;24.15;6.90;;;;;;;;;;5026858;28;20037;-53
2024/04/03 02:31:45;;;;;;;22.20;5.40;;;;;;;;;;5026723;28;20495;-56
2024/04/03 02:34:11;;;;;;;23.33;5.50;;;;;;;;;;5025419;28;20044;-52
2024/04/03 02:36:37;;;;;;;17.88;5.55;;;;;;;;;;5026500;28;20038;-55
2024/04/03 02:39:03;;;;;;;25.88;6.00;;;;;;;;;;5024944;28;20045;-53
2024/04/03 02:41:28;;;;;;;18.33;5.53;;;;;;;;;;5026907;28;20524;-55
2024/04/03 02:43:54;;;;;;;27.00;5.72;;;;;;;;;;5027198;28;20037;-54
2024/04/03 02:46:20;;;;;;;26.27;5.95;;;;;;;;;;5009250;28;20083;-54
2024/04/03 02:48:46;;;;;;;28.63;5.28;;;;;;;;;;5026628;28;20029;-51
2024/04/03 02:51:12;;;;;;;25.30;5.95;;;;;;;;;;5041549;28;20560;-53
2024/04/03 02:53:38;;;;;;;21.58;5.53;;;;;;;;;;5026843;28;20048;-56
2024/04/03 02:56:05;;;;;;;18.88;5.72;;;;;;;;;;5025227;28;20033;-52
2024/04/03 02:58:31;;;;;;;25.10;5.35;;;;;;;;;;5041265;28;20530;-51
2024/04/03 03:01:00;;;;;;;21.15;5.65;;;;;;;;;;5026340;28;20080;-54
2024/04/03 03:03:29;;;;;;;25.20;5.20;;;;;;;;;;5026581;28;20106;-53
2024/04/03 03:05:56;;;;;;;30.25;7.93;;;;;;;;;;5024681;28;20454;-53
2024/04/03 03:08:21;;;;;;;27.30;6.32;;;;;;;;;;5025977;28;20143;-55
2024/04/03 03:10:47;;;;;;;26.15;6.70;;;;;;;;;;5026245;28;20183;-53
2024/04/03 03:13:13;;;;;;;24.80;5.90;;;;;;;;;;5026207;28;20037;-52
2024/04/03 03:15:38;;;;;;;22.77;5.22;;;;;;;;;;5026177;28;20436;-53
2024/04/03 03:18:04;;;;;;;22.02;5.75;;;;;;;;;;5024730;28;20044;-51
2024/04/03 03:20:30;;;;;;;20.88;5.03;;;;;;;;;;5006812;28;20038;-53
2024/04/03 03:22:55;;;;;;;19.65;5.05;;;;;;;;;;5024190;28;20030;-52
2024/04/03 03:25:21;;;;;;;29.25;6.88;;;;;;;;;;5033126;28;20072;-56
2024/04/03 03:27:46;;;;;;;27.10;5.95;;;;;;;;;;5026016;28;20103;-55
2024/04/03 03:30:12;;;;;;;29.50;5.93;;;;;;;;;;5025722;28;20072;-54
2024/04/03 03:32:38;;;;;;;23.75;5.95;;;;;;;;;;5025971;28;20156;-52
2024/04/03 03:35:04;;;;;;;20.25;6.05;;;;;;;;;;5041505;28;20585;-54
2024/04/03 03:37:29;;;;;;;16.48;5.75;;;;;;;;;;5024697;28;20044;-54
2024/04/03 03:39:55;;;;;;;31.85;6.15;;;;;;;;;;5024308;28;20420;-52
2024/04/03 03:42:22;;;;;;;22.55;5.78;;;;;;;;;;5024377;28;20029;-56
2024/04/03 03:44:49;;;;;;;18.58;5.65;;;;;;;;;;5025848;28;20459;-54
2024/04/03 03:47:14;;;;;;;31.33;5.75;;;;;;;;;;5025998;28;20037;-54
2024/04/03 03:52:36;;;;;;;27.17;5.68;;;;;;;;;;5024869;28;20132;-53
2024/04/03 03:55:02;;;;;;;23.60;5.43;;;;;;;;;;5024758;28;20598;-52
2024/04/03 03:57:30;;;;;;;26.55;5.07;;;;;;;;;;5024162;28;20046;-58
2024/04/03 03:59:56;;;;;;;32.47;5.32;;;;;;;;;;5025039;28;20100;-57
2024/04/03 04:02:22;;;;;;;21.98;4.50;;;;;;;;;;5026001;28;20029;-56
2024/04/03 04:04:51;;;;;;;24.85;4.80;;;;;;;;;;5027886;28;20084;-56
2024/04/03 04:07:20;;;;;;;24.60;6.68;;;;;;;;;;5027862;28;20124;-56
2024/04/03 04:09:47;;;;;;;20.05;5.20;;;;;;;;;;5027995;28;20144;-53
2024/04/03 04:12:13;;;;;;;16.90;3.70;;;;;;;;;;5027387;28;20076;-57
2024/04/03 04:14:38;;;;;;;22.83;4.43;;;;;;;;;;5027717;28;20037;-54
2024/04/03 04:17:04;;;;;;;16.85;4.00;;;;;;;;;;5029186;28;20040;-56
2024/04/03 04:19:30;;;;;;;31.88;5.38;;;;;;;;;;5029475;28;20853;-56
2024/04/03 04:21:56;;;;;;;21.15;4.55;;;;;;;;;;5028623;28;20025;-55
2024/04/03 04:24:22;;;;;;;18.00;4.40;;;;;;;;;;5028848;28;20049;-54
2024/04/03 04:26:48;;;;;;;23.63;5.00;;;;;;;;;;5026572;28;20025;-57
2024/04/03 04:29:14;;;;;;;21.02;4.43;;;;;;;;;;5028287;28;20044;-56
2024/04/03 04:31:39;;;;;;;19.65;4.03;;;;;;;;;;5027620;28;20037;-55
2024/04/03 04:34:05;;;;;;;20.15;4.00;;;;;;;;;;4998530;28;20076;-54
2024/04/03 04:36:31;;;;;;;24.95;4.70;;;;;;;;;;5032957;28;20057;-53
2024/04/03 04:38:57;;;;;;;23.73;5.22;;;;;;;;;;5027598;28;20112;-51
2024/04/03 04:41:24;;;;;;;22.35;5.32;;;;;;;;;;5028628;28;20041;-51
2024/04/03 04:43:50;;;;;;;22.95;4.85;;;;;;;;;;5027007;28;20033;-52
2024/04/03 04:46:16;;;;;;;22.70;4.97;;;;;;;;;;5027883;28;20095;-54
2024/04/03 04:48:41;;;;;;;20.95;4.18;;;;;;;;;;5029281;28;20021;-55
2024/04/03 04:51:07;;;;;;;20.17;4.00;;;;;;;;;;5028592;28;20029;-52
2024/04/03 04:53:33;;;;;;;21.42;4.85;;;;;;;;;;5043823;28;20033;-52
2024/04/03 04:56:03;;;;;;;22.55;4.32;;;;;;;;;;5026655;28;20061;-54
2024/04/03 04:58:29;;;;;;;13.50;3.95;;;;;;;;;;5026959;28;20083;-52
2024/04/03 05:01:03;;;;;;;14.38;3.17;;;;;;;;;;5004485;28;20037;-54
2024/04/03 05:03:28;;;;;;;18.60;4.43;;;;;;;;;;5004691;28;20033;-52
2024/04/03 05:05:55;;;;;;;23.45;4.82;;;;;;;;;;5007029;28;20030;-54
2024/04/03 05:08:20;;;;;;;29.98;4.65;;;;;;;;;;5019295;28;20461;-53
2024/04/03 05:10:56;;;;;;;17.40;3.95;;;;;;;;;;5028954;28;20524;-55
2024/04/03 05:13:24;;;;;;;26.55;4.60;;;;;;;;;;5022965;28;20065;-50
2024/04/03 05:15:50;;;;;;;25.85;4.65;;;;;;;;;;5022640;28;20041;-52
2024/04/03 05:18:15;;;;;;;24.88;4.38;;;;;;;;;;5008896;28;20498;-53
2024/04/03 05:20:41;;;;;;;18.13;4.10;;;;;;;;;;5026579;28;20037;-55
2024/04/03 05:23:07;;;;;;;21.40;4.93;;;;;;;;;;5026763;28;20064;-55
2024/04/03 05:25:36;;;;;;;28.52;4.85;;;;;;;;;;5026222;28;20041;-56
2024/04/03 05:28:03;;;;;;;16.42;5.10;;;;;;;;;;5026124;28;20657;-51
2024/04/03 05:30:28;;;;;;;20.17;4.80;;;;;;;;;;5027174;28;20033;-55
2024/04/03 05:32:54;;;;;;;21.30;4.55;;;;;;;;;;5026355;28;20810;-56
2024/04/03 05:35:21;;;;;;;19.23;4.82;;;;;;;;;;5027848;28;20041;-57
2024/04/03 05:37:47;;;;;;;16.98;3.58;;;;;;;;;;5042907;28;20060;-56
2024/04/03 05:40:12;;;;;;;14.65;3.75;;;;;;;;;;5027421;28;20037;-55
2024/04/03 05:42:39;;;;;;;18.90;4.38;;;;;;;;;;5025984;28;20068;-52
2024/04/03 05:45:05;;;;;;;16.15;3.55;;;;;;;;;;5026694;28;20065;-55
2024/04/03 05:47:32;;;;;;;25.15;4.88;;;;;;;;;;5027480;28;20394;-51
2024/04/03 05:49:58;;;;;;;19.67;4.82;;;;;;;;;;5025423;28;20041;-58
2024/04/03 05:52:25;;;;;;;18.70;3.70;;;;;;;;;;5042636;28;20034;-55
2024/04/03 05:54:51;;;;;;;9.43;2.70;;;;;;;;;;5026083;28;20057;-50
2024/04/03 05:57:17;;;;;;;16.17;4.03;;;;;;;;;;5025846;28;20622;-51
2024/04/03 05:59:44;;;;;;;16.67;3.80;;;;;;;;;;5026798;28;20030;-50
2024/04/03 06:02:10;;;;;;;24.70;4.25;;;;;;;;;;5006147;28;20033;-58
2024/04/03 06:04:36;;;;;;;22.27;3.95;;;;;;;;;;5007684;28;20037;-54
2024/04/03 06:07:03;;;;;;;20.52;4.65;;;;;;;;;;5022352;28;20034;-55
2024/04/03 06:09:30;;;;;;;30.42;4.80;;;;;;;;;;5005925;28;20116;-57
2024/04/03 06:11:56;;;;;;;17.48;3.40;;;;;;;;;;5021821;28;20041;-54
2024/04/03 06:14:21;;;;;;;19.25;4.47;;;;;;;;;;5026982;28;20135;-57
2024/04/03 06:16:47;;;;;;;19.65;4.55;;;;;;;;;;5026727;28;20037;-54
2024/04/03 06:19:14;;;;;;;27.25;3.90;;;;;;;;;;5026572;28;20969;-53
2024/04/03 06:21:39;;;;;;;17.40;3.10;;;;;;;;;;5036202;28;20087;-55
2024/04/03 06:24:06;;;;;;;17.42;3.50;;;;;;;;;;5025274;28;20049;-54
2024/04/03 06:26:35;;;;;;;24.52;4.00;;;;;;;;;;5026332;28;20033;-52
2024/04/03 06:29:02;;;;;;;22.90;3.05;;;;;;;;;;5025028;28;20117;-55
2024/04/03 06:31:28;;;;;;;12.27;2.78;;;;;;;;;;5024466;28;20033;-53
2024/04/03 06:33:56;;;;;;;10.77;2.40;;;;;;;;;;5041528;28;20037;-56
2024/04/03 06:36:22;;;;;;;8.70;2.50;;;;;;;;;;5026028;28;20030;-57
2024/04/03 06:38:48;;;;;;;10.45;2.65;;;;;;;;;;5026330;28;20033;-55
2024/04/03 06:41:14;;;;;;;15.48;3.35;;;;;;;;;;5025010;28;20092;-55
2024/04/03 06:43:39;;;;;;;16.38;3.25;;;;;;;;;;5040513;28;20527;-54
2024/04/03 06:46:05;;;;;;;6.57;2.33;;;;;;;;;;5041774;28;20038;-56
2024/04/03 06:48:32;;;;;;;12.65;3.03;;;;;;;;;;5025809;28;20132;-55
2024/04/03 06:50:57;;;;;;;13.10;3.08;;;;;;;;;;5039782;28;20033;-53
2024/04/03 06:53:23;;;;;;;12.82;2.70;;;;;;;;;;5025176;28;20398;-55
2024/04/03 06:55:59;;;;;;;13.15;3.72;;;;;;;;;;5026227;28;20061;-55
2024/04/03 06:58:27;;;;;;;11.25;2.90;;;;;;;;;;5026320;28;20069;-54
2024/04/03 07:00:53;;;;;;;15.90;3.90;;;;;;;;;;5023812;28;20056;-56
2024/04/03 07:03:19;;;;;;;10.50;2.60;;;;;;;;;;5024735;28;20037;-54
2024/04/03 07:05:45;;;;;;;16.42;3.00;;;;;;;;;;5041403;28;20025;-57
2024/04/03 07:08:11;;;;;;;11.52;2.95;;;;;;;;;;5026243;28;20537;-49
2024/04/03 07:10:37;;;;;;;10.38;2.25;;;;;;;;;;5032855;28;20060;-55
2024/04/03 07:13:04;;;;;;;10.55;2.30;;;;;;;;;;5024446;28;20039;-54
2024/04/03 07:15:31;;;;;;;13.02;2.70;;;;;;;;;;5041621;28;20062;-52
2024/04/03 07:17:57;;;;;;;13.95;3.15;;;;;;;;;;5041242;28;20569;-53
2024/04/03 07:20:26;;;;;;;17.35;2.47;;;;;;;;;;5017732;28;20030;-58
2024/04/03 07:22:53;;;;;;;10.52;2.78;;;;;;;;;;5005018;28;20129;-49
2024/04/03 07:25:19;;;;;;;17.77;2.65;;;;;;;;;;5016259;28;20045;-56
2024/04/03 07:27:45;;;;;;;10.20;2.40;;;;;;;;;;5025799;28;20111;-57
2024/04/03 07:30:11;;;;;;;16.80;2.50;;;;;;;;;;5024262;28;20057;-55
2024/04/03 07:32:37;;;;;;;12.20;1.90;;;;;;;;;;5026042;28;20132;-54
2024/04/03 07:35:03;;;;;;;12.32;2.25;;;;;;;;;;5024632;28;20516;-52
2024/04/03 07:37:28;;;;;;;21.73;1.98;;;;;;;;;;5026930;28;20045;-53
2024/04/03 07:39:54;;;;;;;9.00;2.38;;;;;;;;;;5029509;28;20029;-55
2024/04/03 07:42:20;;;;;;;14.18;1.88;;;;;;;;;;5029211;28;20147;-54
2024/04/03 07:44:47;;;;;;;7.38;1.88;;;;;;;;;;5012585;28;20037;-54
2024/04/03 07:47:13;;;;;;;30.92;2.40;;;;;;;;;;5028846;28;20552;-55
2024/04/03 07:49:38;;;;;;;17.60;2.67;;;;;;;;;;5030018;28;20037;-53
2024/04/03 07:52:04;;;;;;;5.80;1.42;;;;;;;;;;5027787;28;20157;-56
2024/04/03 07:54:30;;;;;;;10.95;1.65;;;;;;;;;;5029344;28;20111;-57
2024/04/03 07:56:55;;;;;;;13.73;1.98;;;;;;;;;;5027905;28;20405;-57
2024/04/03 07:59:21;;;;;;;8.20;1.88;;;;;;;;;;5044401;28;20040;-52
2024/04/03 08:01:47;;;;;;;10.13;2.00;;;;;;;;;;5024670;28;20044;-56
2024/04/03 08:04:12;;;;;;;16.90;1.92;;;;;;;;;;5044945;28;20041;-54
2024/04/03 08:06:40;;;;;;;17.98;1.70;;;;;;;;;;5027801;28;20044;-55
2024/04/03 08:09:06;;;;;;;10.18;1.88;;;;;;;;;;5029548;28;20029;-54
2024/04/03 08:11:32;;;;;;;6.20;1.38;;;;;;;;;;5028647;28;20041;-56
2024/04/03 08:13:59;;;;;;;6.57;1.45;;;;;;;;;;5027810;28;20116;-56
2024/04/03 08:16:24;;;;;;;16.63;1.92;;;;;;;;;;5028741;28;20069;-55
2024/04/03 08:18:50;;;;;;;19.65;1.98;;;;;;;;;;5044097;28;20138;-56
2024/04/03 08:21:16;;;;;;;23.23;2.17;;;;;;;;;;5027910;28;20171;-56
2024/04/03 08:23:41;;;;;;;11.77;1.50;;;;;;;;;;5031087;28;20526;-55
2024/04/03 08:26:08;;;;;;;15.07;1.73;;;;;;;;;;5027596;28;20041;-55
2024/04/03 08:28:41;;;;;;;14.50;1.40;;;;;;;;;;5027954;28;20103;-56
2024/04/03 08:31:13;;;;;;;7.47;1.80;;;;;;;;;;5027565;28;20034;-56
2024/04/03 08:33:41;;;;;;;7.68;1.23;;;;;;;;;;5028433;28;20106;-52
2024/04/03 08:36:07;;;;;;;15.10;1.33;;;;;;;;;;5027304;28;20040;-53
2024/04/03 08:38:33;;;;;;;9.15;1.42;;;;;;;;;;5028315;28;20041;-54
2024/04/03 08:40:59;;;;;;;14.65;1.70;;;;;;;;;;5027468;28;20044;-51
2024/04/03 08:43:25;;;;;;;16.50;1.85;;;;;;;;;;5027906;28;20061;-55
2024/04/03 08:45:53;;;;;;;13.00;1.88;;;;;;;;;;5010498;28;20095;-54
2024/04/03 08:48:21;;;;;;;25.30;1.85;;;;;;;;;;5027171;28;20041;-57
2024/04/03 08:50:47;;;;;;;19.33;2.60;;;;;;;;;;5007710;28;20041;-52
2024/04/03 08:53:19;;;;;;;10.88;2.05;;;;;;;;;;5026695;28;20036;-56
2024/04/03 08:55:45;;;;;;;7.07;1.35;;;;;;;;;;5027476;28;20381;-56
2024/04/03 08:58:11;;;;;;;13.30;1.55;;;;;;;;;;5028354;28;20033;-51
2024/04/03 09:00:38;;;;;;;12.45;1.77;;;;;;;;;;5027098;28;20049;-56
2024/04/03 09:03:03;;;;;;;12.25;1.95;;;;;;;;;;5028292;28;20029;-57
2024/04/03 09:05:29;;;;;;;12.27;1.80;;;;;;;;;;5027572;28;20041;-53
2024/04/03 09:08:01;;;;;;;11.23;1.48;;;;;;;;;;5026691;28;20047;-58
2024/04/03 09:10:47;;;;;;;13.80;1.60;;;;;;;;;;5026856;28;20154;-50
2024/04/03 09:13:13;;;;;;;8.55;1.63;;;;;;;;;;5028306;28;20037;-52
2024/04/03 09:15:39;;;;;;;11.07;1.48;;;;;;;;;;5007329;28;20062;-53
2024/04/03 09:18:14;;;;;;;12.38;1.67;;;;;;;;;;5027856;28;20033;-48
2024/04/03 09:20:41;;;;;;;12.95;2.05;;;;;;;;;;5028036;28;20112;-54
2024/04/03 09:23:08;;;;;;;8.70;1.60;;;;;;;;;;5027832;28;20048;-55
2024/04/03 09:25:35;;;;;;;13.33;1.73;;;;;;;;;;5027270;28;20869;-55
2024/04/03 09:28:04;;;;;;;8.70;1.55;;;;;;;;;;5025798;28;20279;-52
2024/04/03 09:30:31;;;;;;;16.60;2.40;;;;;;;;;;5026454;28;20140;-52
2024/04/03 09:32:57;;;;;;;9.10;1.95;;;;;;;;;;5026403;28;20509;-49
2024/04/03 09:35:30;;;;;;;13.88;2.50;;;;;;;;;;5005758;28;20057;-52
2024/04/03 09:37:55;;;;;;;14.00;2.05;;;;;;;;;;5006673;28;20037;-54
2024/04/03 09:40:26;;;;;;;9.45;1.45;;;;;;;;;;5008562;28;20083;-51
2024/04/03 09:43:02;;;;;;;5.50;2.05;;;;;;;;;;5008155;28;20136;-54
2024/04/03 09:45:28;;;;;;;8.30;2.72;;;;;;;;;;4992728;28;20515;-48
2024/04/03 09:47:58;;;;;;;9.32;2.33;;;;;;;;;;5007554;28;20034;-54
2024/04/03 09:50:40;;;;;;;9.10;1.77;;;;;;;;;;5006391;28;20046;-51
2024/04/03 09:53:12;;;;;;;9.27;1.88;;;;;;;;;;5007846;28;20041;-53
2024/04/03 09:55:38;;;;;;;10.10;2.03;;;;;;;;;;5014658;28;20132;-49
2024/04/03 09:58:11;;;;;;;8.25;2.28;;;;;;;;;;5025460;28;20064;-52
2024/04/03 10:00:37;;;;;;;14.05;1.90;;;;;;;;;;5026408;28;20068;-52
2024/04/03 10:03:02;;;;;;;13.70;2.85;;;;;;;;;;5025419;28;20069;-49
2024/04/03 10:05:35;;;;;;;15.90;2.33;;;;;;;;;;5026158;28;20420;-53
2024/04/03 10:08:08;;;;;;;11.90;1.60;;;;;;;;;;5025556;28;20514;-56
2024/04/03 10:10:33;;;;;;;10.00;2.05;;;;;;;;;;5027420;28;20045;-52
2024/04/03 10:13:00;;;;;;;12.05;2.05;;;;;;;;;;5025880;28;20084;-50
2024/04/03 10:15:27;;;;;;;6.90;1.60;;;;;;;;;;5024404;28;20661;-50
2024/04/03 10:18:00;;;;;;;14.70;1.85;;;;;;;;;;5006217;28;20038;-53
2024/04/03 10:20:37;;;;;;;19.02;2.20;;;;;;;;;;5007165;28;20041;-52
2024/04/03 10:23:03;;;;;;;15.02;1.70;;;;;;;;;;5021913;28;20168;-49
2024/04/03 10:25:35;;;;;;;10.18;1.63;;;;;;;;;;5017637;28;20569;-48
2024/04/03 10:28:07;;;;;;;13.63;1.63;;;;;;;;;;4992411;28;20033;-52
2024/04/03 10:30:33;;;;;;;7.78;1.38;;;;;;;;;;5026358;28;20087;-54
2024/04/03 10:33:00;;;;;;;14.38;2.00;;;;;;;;;;5026314;28;20033;-51
2024/04/03 10:35:29;;;;;;;12.50;2.00;;;;;;;;;;5026432;28;20038;-53
2024/04/03 10:37:58;;;;;;;14.13;1.27;;;;;;;;;;5041036;28;20037;-55
2024/04/03 10:40:27;;;;;;;7.63;0.80;;;;;;;;;;5041904;28;20124;-54
2024/04/03 10:42:53;;;;;;;8.45;1.02;;;;;;;;;;5008728;28;20513;-52
2024/04/03 10:45:19;;;;;;;11.93;1.27;;;;;;;;;;5026700;28;20043;-51
2024/04/03 10:47:48;;;;;;;7.25;1.08;;;;;;;;;;5025056;28;20041;-50
2024/04/03 10:50:17;;;;;;;5.40;0.77;;;;;;;;;;5026736;28;20033;-51
2024/04/03 10:52:44;;;;;;;4.75;0.90;;;;;;;;;;5024545;28;20038;-55
2024/04/03 10:55:19;;;;;;;15.70;1.13;;;;;;;;;;5041034;28;20079;-53
2024/04/03 10:57:48;;;;;;;2.22;0.60;;;;;;;;;;5021898;28;20087;-49
2024/04/03 11:00:17;;;;;;;2.47;0.63;;;;;;;;;;5024534;28;20042;-51
2024/04/03 11:02:43;;;;;;;;;;;;;;;;;;5008645;28;20115;-55
2024/04/03 11:05:08;;;;;;;1.88;0.63;;;;;;;;;;5024114;28;20030;-55
2024/04/03 11:07:34;;;;;;;7.35;0.52;;;;;;;;;;5025535;28;20842;-54
2024/04/03 11:09:59;;;;;;;1.63;0.70;;;;;;;;;;5025313;28;20480;-54
2024/04/03 11:12:25;;;;;;;2.60;0.77;;;;;;;;;;5025620;28;20041;-50
2024/04/03 11:14:55;;;;;;;5.22;1.00;;;;;;;;;;5024730;28;20041;-55
2024/04/03 11:17:21;;;;;;;4.88;0.82;;;;;;;;;;5037961;28;20041;-57
2024/04/03 11:19:46;;;;;;;6.68;0.80;;;;;;;;;;5024804;28;20511;-54
2024/04/03 11:22:12;;;;;;;6.30;0.98;;;;;;;;;;5025335;28;20030;-52
2024/04/03 11:24:38;;;;;;;2.63;0.50;;;;;;;;;;5007014;28;20049;-53
2024/04/03 11:27:06;;;;;;;3.53;0.50;;;;;;;;;;5025138;28;20033;-49
2024/04/03 11:29:32;;;;;;;4.05;0.60;;;;;;;;;;5020367;28;20045;-55
2024/04/03 11:31:58;;;;;;;3.53;0.90;;;;;;;;;;5005870;28;20042;-54
2024/04/03 11:34:27;;;;;;;4.18;0.50;;;;;;;;;;5006102;28;20214;-52
2024/04/03 11:36:53;;;;;;;;;;;;;;;;;;5004696;28;20493;-51
2024/04/03 11:39:19;;;;;;;4.07;0.40;;;;;;;;;;5012928;28;19919;-52
2024/04/03 11:41:45;;;;;;;4.90;0.90;;;;;;;;;;5040423;28;20045;-53
2024/04/03 11:44:12;;;;;;;3.25;0.50;;;;;;;;;;5024006;28;20451;-52
2024/04/03 11:46:38;;;;;;;2.75;0.40;;;;;;;;;;5024211;28;20037;-53
2024/04/03 11:49:04;;;;;;;3.90;0.60;;;;;;;;;;5024808;28;20080;-52
2024/04/03 11:51:30;;;;;;;5.90;0.80;;;;;;;;;;5024976;28;20045;-54
2024/04/03 11:53:56;;;;;;;3.75;0.57;;;;;;;;;;5025497;28;20140;-55
2024/04/03 11:56:22;;;;;;;5.15;0.85;;;;;;;;;;5040541;28;20112;-52
2024/04/03 11:58:50;;;;;;;9.57;0.63;;;;;;;;;;5040471;28;20041;-50
2024/04/03 12:01:16;;;;;;;2.58;0.40;;;;;;;;;;5003976;28;20107;-53
2024/04/03 12:03:42;;;;;;;3.10;0.73;;;;;;;;;;4987881;28;20037;-54
2024/04/03 12:06:08;;;;;;;2.78;0.57;;;;;;;;;;5036325;28;20056;-54
2024/04/03 12:08:34;;;;;;;1.45;0.60;;;;;;;;;;5024459;28;20496;-54
2024/04/03 12:11:00;;;;;;;1.70;0.80;;;;;;;;;;5040277;28;20026;-56
2024/04/03 12:13:26;;;;;;;2.80;0.57;;;;;;;;;;5023896;28;20076;-56
2024/04/03 12:15:51;;;;;;;0.55;0.50;;;;;;;;;;5007466;28;20087;-57
2024/04/03 12:18:25;;;;;;;1.48;0.80;;;;;;;;;;5023665;28;20505;-51
2024/04/03 12:20:53;;;;;;;1.30;0.40;;;;;;;;;;5024981;28;20047;-54
2024/04/03 12:23:19;;;;;;;1.13;0.60;;;;;;;;;;5025720;28;20060;-48
2024/04/03 12:25:46;;;;;;;6.53;0.90;;;;;;;;;;5026086;28;20505;-51
2024/04/03 12:28:12;;;;;;;1.67;0.50;;;;;;;;;;5026829;28;20052;-51
2024/04/03 12:30:37;;;;;;;2.40;0.60;;;;;;;;;;5026052;28;20046;-55
2024/04/03 12:33:06;;;;;;;1.30;0.52;;;;;;;;;;5028216;28;20155;-53
2024/04/03 12:35:34;;;;;;;0.40;0.40;;;;;;;;;;5035490;28;20052;-50
2024/04/03 12:38:00;;;;;;;4.03;0.82;;;;;;;;;;5028246;28;20063;-53
2024/04/03 12:40:26;;;;;;;1.83;0.65;;;;;;;;;;5027147;28;20055;-52
2024/04/03 12:42:52;;;;;;;1.20;0.85;;;;;;;;;;5028551;28;20392;-57
2024/04/03 12:45:17;;;;;;;1.85;0.35;;;;;;;;;;5027594;28;20599;-53
2024/04/03 12:47:43;;;;;;;4.63;0.50;;;;;;;;;;5028839;28;20076;-55
2024/04/03 12:50:09;;;;;;;6.80;0.75;;;;;;;;;;5028927;28;20118;-53
2024/04/03 12:52:35;;;;;;;2.25;0.88;;;;;;;;;;5007202;28;20132;-55
2024/04/03 12:55:00;;;;;;;2.95;0.73;;;;;;;;;;5016316;28;20085;-56
2024/04/03 12:57:26;;;;;;;1.52;0.35;;;;;;;;;;5028548;28;20057;-51
2024/04/03 12:59:52;;;;;;;0.55;0.40;;;;;;;;;;5027042;28;20037;-51
2024/04/03 13:02:17;;;;;;;1.58;0.30;;;;;;;;;;5028140;28;20128;-52
2024/04/03 13:04:43;;;;;;;2.17;0.55;;;;;;;;;;5028676;28;20501;-50
2024/04/03 13:07:09;;;;;;;2.15;0.95;;;;;;;;;;5010560;28;20124;-56
2024/04/03 13:09:35;;;;;;;7.43;1.00;;;;;;;;;;5028565;28;20076;-49
2024/04/03 13:12:05;;;;;;;2.75;0.63;;;;;;;;;;5028043;28;20121;-52
2024/04/03 13:14:34;;;;;;;2.33;0.40;;;;;;;;;;5025508;28;20048;-51
2024/04/03 13:17:00;;;;;;;5.28;0.57;;;;;;;;;;5025897;28;20533;-51
2024/04/03 13:19:26;;;;;;;9.90;0.85;;;;;;;;;;5028077;28;20048;-52
2024/04/03 13:21:52;;;;;;;4.97;0.60;;;;;;;;;;5028503;28;20060;-53
2024/04/03 13:24:18;;;;;;;6.13;0.50;;;;;;;;;;5025850;28;20077;-50
2024/04/03 13:26:44;;;;;;;2.05;0.52;;;;;;;;;;5026611;28;20057;-55
2024/04/03 13:29:10;;;;;;;0.93;0.50;;;;;;;;;;5026763;28;20041;-51
2024/04/03 13:31:36;;;;;;;1.52;0.70;;;;;;;;;;5028384;28;20488;-54
2024/04/03 13:34:02;;;;;;;1.67;0.30;;;;;;;;;;5028015;28;20136;-54
2024/04/03 13:36:27;;;;;;;2.55;0.45;;;;;;;;;;5026818;28;20148;-49
2024/04/03 13:38:53;;;;;;;5.78;0.55;;;;;;;;;;5026204;28;20049;-50
2024/04/03 13:41:19;;;;;;;3.28;0.40;;;;;;;;;;5042732;28;20033;-53
2024/04/03 13:43:45;;;;;;;5.55;0.80;;;;;;;;;;5027439;28;20057;-57
2024/04/03 13:46:10;;;;;;;3.20;0.30;;;;;;;;;;5027799;28;20072;-54
2024/04/03 13:48:36;;;;;;;0.38;0.30;;;;;;;;;;5027715;28;20516;-56
2024/04/03 13:51:02;;;;;;;1.48;0.40;;;;;;;;;;5043158;28;20092;-56
2024/04/03 13:53:29;;;;;;;0.80;0.30;;;;;;;;;;5026066;28;20083;-54
2024/04/03 13:56:05;;;;;;;0.63;0.35;;;;;;;;;;5010357;28;20045;-57
2024/04/03 13:58:31;;;;;;;0.35;0.35;;;;;;;;;;5026855;28;20048;-51
2024/04/03 14:01:03;;;;;;;0.70;0.40;;;;;;;;;;5043538;28;20038;-50
2024/04/03 14:03:30;;;;;;;0.50;0.32;;;;;;;;;;5027883;28;20398;-55
2024/04/03 14:05:55;;;;;;;0.60;0.40;;;;;;;;;;5027186;28;20732;-52
2024/04/03 14:08:21;;;;;;;0.88;0.40;;;;;;;;;;5025990;28;20045;-50
2024/04/03 14:10:47;;;;;;;1.40;0.50;;;;;;;;;;5042834;28;20172;-51
2024/04/03 14:13:13;;;;;;;1.38;0.40;;;;;;;;;;5028037;28;20056;-52
2024/04/03 14:15:39;;;;;;;0.55;0.40;;;;;;;;;;5026930;28;20034;-53
2024/04/03 14:18:05;;;;;;;0.82;0.50;;;;;;;;;;5027357;28;20428;-55
2024/04/03 14:20:31;;;;;;;0.20;0.20;;;;;;;;;;5026626;28;20044;-55
2024/04/03 14:22:57;;;;;;;1.40;0.30;;;;;;;;;;5042278;28;20045;-54
2024/04/03 14:25:23;;;;;;;1.55;0.50;;;;;;;;;;5032104;28;20037;-53
2024/04/03 14:27:49;;;;;;;1.33;0.40;;;;;;;;;;5042474;28;20038;-53
2024/04/03 14:30:16;;;;;;;2.00;0.63;;;;;;;;;;5009676;28;20049;-56
2024/04/03 14:32:42;;;;;;;0.90;0.45;;;;;;;;;;4992862;28;20038;-58
2024/04/03 14:35:10;;;;;;;1.35;0.60;;;;;;;;;;5021844;28;20045;-58